createdAt,value
2018-12-19T00:00:23.666Z,4.28
2018-12-19T00:02:52.855Z,3.70
2018-12-19T00:05:22.165Z,3.55
2018-12-19T00:07:51.344Z,4.87
2018-12-19T00:10:20.523Z,3.60
2018-12-19T00:12:49.712Z,3.25
2018-12-19T00:15:23.418Z,3.30
2018-12-19T00:17:52.592Z,2.55
2018-12-19T00:20:21.787Z,3.08
2018-12-19T00:22:50.970Z,3.05
2018-12-19T00:25:20.186Z,3.10
2018-12-19T00:27:49.362Z,3.08
2018-12-19T00:30:18.671Z,3.25
2018-12-19T00:32:47.846Z,3.12
2018-12-19T00:35:17.052Z,2.90
2018-12-19T00:37:46.228Z,2.47
2018-12-19T00:40:18.570Z,3.33
2018-12-19T00:42:47.730Z,3.58
2018-12-19T00:45:17.031Z,3.15
2018-12-19T00:47:46.199Z,3.42
2018-12-19T00:50:15.476Z,2.52
2018-12-19T00:52:44.666Z,3.80
2018-12-19T00:55:13.895Z,3.25
2018-12-19T00:57:43.069Z,3.20
2018-12-19T01:00:12.434Z,3.77
2018-12-19T01:02:41.625Z,2.98
2018-12-19T01:05:10.889Z,3.83
2018-12-19T01:07:40.067Z,3.22
2018-12-19T01:10:09.346Z,3.85
2018-12-19T01:12:38.706Z,3.83
2018-12-19T01:15:08.128Z,3.17
2018-12-19T01:17:37.308Z,4.45
2018-12-19T01:20:06.678Z,3.55
2018-12-19T01:22:35.946Z,3.10
2018-12-19T01:25:05.515Z,3.85
2018-12-19T01:27:34.663Z,4.03
2018-12-19T01:30:04.154Z,4.20
2018-12-19T01:32:33.314Z,4.00
2018-12-19T01:35:02.482Z,5.20
2018-12-19T01:37:31.627Z,5.30
2018-12-19T01:40:00.817Z,5.12
2018-12-19T01:42:29.977Z,4.87
2018-12-19T01:44:59.299Z,4.47
2018-12-19T01:47:28.550Z,4.53
2018-12-19T01:49:58.710Z,3.83
2018-12-19T01:52:27.875Z,4.95
2018-12-19T01:54:57.054Z,4.70
2018-12-19T01:57:26.230Z,4.78
2018-12-19T01:59:55.406Z,4.25
2018-12-19T02:02:24.743Z,4.80
2018-12-19T02:04:53.931Z,4.92
2018-12-19T02:07:23.098Z,4.55
2018-12-19T02:09:52.278Z,4.95
2018-12-19T02:12:21.430Z,3.67
2018-12-19T02:14:50.639Z,5.30
2018-12-19T02:17:19.803Z,5.80
2018-12-19T02:19:48.993Z,4.80
2018-12-19T02:22:18.150Z,5.42
2018-12-19T02:24:47.333Z,5.10
2018-12-19T02:27:16.526Z,5.30
2018-12-19T02:29:45.694Z,4.47
2018-12-19T02:32:14.859Z,5.65
2018-12-19T02:34:44.140Z,4.83
2018-12-19T02:37:13.355Z,5.25
2018-12-19T02:39:42.542Z,5.97
2018-12-19T02:42:11.722Z,5.67
2018-12-19T02:44:41.286Z,5.50
2018-12-19T02:47:10.456Z,5.90
2018-12-19T02:49:39.642Z,5.90
2018-12-19T02:52:08.803Z,6.05
2018-12-19T02:54:37.978Z,5.37
2018-12-19T02:57:07.135Z,5.65
2018-12-19T02:59:36.330Z,6.10
2018-12-19T03:02:05.582Z,5.62
2018-12-19T03:04:34.806Z,5.80
2018-12-19T03:07:04.051Z,5.65
2018-12-19T03:09:33.225Z,5.22
2018-12-19T03:12:02.390Z,5.35
2018-12-19T03:14:31.587Z,5.85
2018-12-19T03:17:00.734Z,6.08
2018-12-19T03:19:29.982Z,6.20
2018-12-19T03:21:59.156Z,5.85
2018-12-19T03:24:28.396Z,6.10
2018-12-19T03:26:57.583Z,5.20
2018-12-19T03:29:26.854Z,6.62
2018-12-19T03:31:56.124Z,6.62
2018-12-19T03:34:25.395Z,6.85
2018-12-19T03:36:54.575Z,5.95
2018-12-19T03:39:24.094Z,6.15
2018-12-19T03:41:53.406Z,5.45
2018-12-19T03:44:22.655Z,5.55
2018-12-19T03:46:51.824Z,6.20
2018-12-19T03:49:21.491Z,6.42
2018-12-19T03:51:50.875Z,6.42
2018-12-19T03:54:20.375Z,6.50
2018-12-19T03:56:49.954Z,5.95
2018-12-19T03:59:19.110Z,2.25
2018-12-19T04:01:48.280Z,6.17
2018-12-19T04:04:17.447Z,6.10
2018-12-19T04:06:46.629Z,6.83
2018-12-19T04:09:16.164Z,5.33
2018-12-19T04:11:45.343Z,5.58
2018-12-19T04:14:14.553Z,6.20
2018-12-19T04:16:43.754Z,6.53
2018-12-19T04:19:12.930Z,3.35
2018-12-19T04:21:42.242Z,6.45
2018-12-19T04:24:11.402Z,6.60
2018-12-19T04:26:40.579Z,7.25
2018-12-19T04:29:09.822Z,6.40
2018-12-19T04:31:39.096Z,6.05
2018-12-19T04:34:08.276Z,6.25
2018-12-19T04:36:37.540Z,4.45
2018-12-19T04:39:07.725Z,6.12
2018-12-19T04:41:36.901Z,6.40
2018-12-19T04:44:06.087Z,7.67
2018-12-19T04:46:35.385Z,5.20
2018-12-19T04:49:04.542Z,6.95
2018-12-19T04:51:33.801Z,6.17
2018-12-19T04:54:02.969Z,5.78
2018-12-19T04:56:32.296Z,6.37
2018-12-19T04:59:01.513Z,6.92
2018-12-19T05:01:30.731Z,6.78
2018-12-19T05:03:59.916Z,7.35
2018-12-19T05:06:29.134Z,5.10
2018-12-19T05:08:58.299Z,6.33
2018-12-19T05:11:27.796Z,8.03
2018-12-19T05:13:56.986Z,7.75
2018-12-19T05:16:26.189Z,7.42
2018-12-19T05:18:55.434Z,6.97
2018-12-19T05:21:24.619Z,8.68
2018-12-19T05:23:53.775Z,7.67
2018-12-19T05:26:23.007Z,8.03
2018-12-19T05:28:52.244Z,7.28
2018-12-19T05:31:22.416Z,6.03
2018-12-19T05:33:51.582Z,7.40
2018-12-19T05:36:20.837Z,6.62
2018-12-19T05:38:50.047Z,7.90
2018-12-19T05:41:20.269Z,7.00
2018-12-19T05:43:49.427Z,6.60
2018-12-19T05:46:18.631Z,8.13
2018-12-19T05:48:47.806Z,8.33
2018-12-19T05:51:16.994Z,3.50
2018-12-19T05:53:46.218Z,8.03
2018-12-19T05:56:15.414Z,7.67
2018-12-19T05:58:44.618Z,9.38
2018-12-19T06:01:13.950Z,8.28
2018-12-19T06:03:43.117Z,6.12
2018-12-19T06:06:12.311Z,7.70
2018-12-19T06:08:41.490Z,5.90
2018-12-19T06:11:10.698Z,7.65
2018-12-19T06:13:39.915Z,8.23
2018-12-19T06:16:09.138Z,3.95
2018-12-19T06:18:38.302Z,6.17
2018-12-19T06:21:07.597Z,9.13
2018-12-19T06:23:36.763Z,9.35
2018-12-19T06:26:06.057Z,8.95
2018-12-19T06:28:36.254Z,8.73
2018-12-19T06:31:05.518Z,8.18
2018-12-19T06:33:35.574Z,8.55
2018-12-19T06:36:05.030Z,8.18
2018-12-19T06:38:34.216Z,8.75
2018-12-19T06:41:03.499Z,8.63
2018-12-19T06:43:32.683Z,7.58
2018-12-19T06:46:01.975Z,8.58
2018-12-19T06:48:31.215Z,8.75
2018-12-19T06:51:00.371Z,3.45
2018-12-19T06:53:29.546Z,6.17
2018-12-19T06:55:58.706Z,8.55
2018-12-19T06:58:27.918Z,8.25
2018-12-19T07:00:57.100Z,9.60
2018-12-19T07:03:26.307Z,7.72
2018-12-19T07:05:55.486Z,7.80
2018-12-19T07:08:24.670Z,8.00
2018-12-19T07:10:53.918Z,6.78
2018-12-19T07:13:23.289Z,6.95
2018-12-19T07:15:52.487Z,7.17
2018-12-19T07:18:21.663Z,9.80
2018-12-19T07:20:50.818Z,6.85
2018-12-19T07:23:20.022Z,8.63
2018-12-19T07:25:49.211Z,8.75
2018-12-19T07:28:18.470Z,8.28
2018-12-19T07:30:47.637Z,8.63
2018-12-19T07:33:16.910Z,8.28
2018-12-19T07:35:46.091Z,8.70
2018-12-19T07:38:15.270Z,6.17
2018-12-19T07:40:45.840Z,9.53
2018-12-19T07:43:15.260Z,8.48
2018-12-19T07:45:44.422Z,7.53
2018-12-19T07:48:13.984Z,3.98
2018-12-19T07:50:43.145Z,8.28
2018-12-19T07:53:12.335Z,4.78
2018-12-19T07:55:42.183Z,7.92
2018-12-19T07:58:11.370Z,7.47
2018-12-19T08:00:40.587Z,10.40
2018-12-19T08:03:09.766Z,11.28
2018-12-19T08:05:38.923Z,9.78
2018-12-19T08:08:08.182Z,9.10
2018-12-19T08:10:37.338Z,6.78
2018-12-19T08:13:06.667Z,7.30
2018-12-19T08:15:35.838Z,7.55
2018-12-19T08:18:05.712Z,7.87
2018-12-19T08:20:35.079Z,9.48
2018-12-19T08:23:04.258Z,8.35
2018-12-19T08:25:33.432Z,8.70
2018-12-19T08:28:02.634Z,8.00
2018-12-19T08:30:31.794Z,5.75
2018-12-19T08:33:01.078Z,7.20
2018-12-19T08:35:30.266Z,8.95
2018-12-19T08:37:59.446Z,8.88
2018-12-19T08:40:28.630Z,7.22
2018-12-19T08:42:57.850Z,9.45
2018-12-19T08:45:27.546Z,8.48
2018-12-19T08:47:56.824Z,8.13
2018-12-19T08:50:25.998Z,6.17
2018-12-19T08:52:55.170Z,7.87
2018-12-19T08:55:24.336Z,9.35
2018-12-19T08:57:53.522Z,8.38
2018-12-19T09:00:24.124Z,10.78
2018-12-19T09:02:53.491Z,10.53
2018-12-19T09:05:22.638Z,9.45
2018-12-19T09:07:51.819Z,8.63
2018-12-19T09:10:21.074Z,9.10
2018-12-19T09:12:50.326Z,5.53
2018-12-19T09:15:27.858Z,8.68
2018-12-19T09:17:56.259Z,8.53
2018-12-19T09:20:25.442Z,7.70
2018-12-19T09:22:54.654Z,4.37
2018-12-19T09:25:23.815Z,8.53
2018-12-19T09:27:53.012Z,7.42
2018-12-19T09:30:22.275Z,8.93
2018-12-19T09:32:52.659Z,8.18
2018-12-19T09:35:21.963Z,8.48
2018-12-19T09:37:51.143Z,5.95
2018-12-19T09:40:20.307Z,8.05
2018-12-19T09:42:49.494Z,8.85
2018-12-19T09:45:18.651Z,8.35
2018-12-19T09:47:47.827Z,8.70
2018-12-19T09:50:17.079Z,8.48
2018-12-19T09:52:46.259Z,6.25
2018-12-19T09:55:15.435Z,8.63
2018-12-19T09:57:44.615Z,7.67
2018-12-19T10:00:19.150Z,9.90
2018-12-19T10:02:49.407Z,9.38
2018-12-19T10:05:18.741Z,9.98
2018-12-19T10:07:48.095Z,9.35
2018-12-19T10:10:17.265Z,8.95
2018-12-19T10:12:46.483Z,7.80
2018-12-19T10:15:15.670Z,9.85
2018-12-19T10:17:44.846Z,9.25
2018-12-19T10:20:14.022Z,8.80
2018-12-19T10:22:43.177Z,9.90
2018-12-19T10:25:13.642Z,10.35
2018-12-19T10:27:43.156Z,8.40
2018-12-19T10:30:14.293Z,9.83
2018-12-19T10:32:43.635Z,9.80
2018-12-19T10:35:13.267Z,10.08
2018-12-19T10:37:42.448Z,9.55
2018-12-19T10:40:12.802Z,9.88
2018-12-19T10:42:41.958Z,8.98
2018-12-19T10:45:11.880Z,11.03
2018-12-19T10:47:41.042Z,9.10
2018-12-19T10:50:11.430Z,9.60
2018-12-19T10:52:40.581Z,9.60
2018-12-19T10:55:10.454Z,9.95
2018-12-19T10:57:39.626Z,10.05
2018-12-19T11:00:18.518Z,10.13
2018-12-19T11:02:47.971Z,9.98
2018-12-19T11:05:17.167Z,10.63
2018-12-19T11:07:46.327Z,8.88
2018-12-19T11:10:15.615Z,10.55
2018-12-19T11:12:44.801Z,9.90
2018-12-19T11:15:14.006Z,9.08
2018-12-19T11:17:43.167Z,7.45
2018-12-19T11:20:12.450Z,7.42
2018-12-19T11:22:41.709Z,9.95
2018-12-19T11:25:11.110Z,9.50
2018-12-19T11:27:40.293Z,9.60
2018-12-19T11:30:10.301Z,9.78
2018-12-19T11:32:39.602Z,9.60
2018-12-19T11:35:09.063Z,10.38
2018-12-19T11:37:38.231Z,9.75
2018-12-19T11:40:09.409Z,8.80
2018-12-19T11:42:38.666Z,9.68
2018-12-19T11:45:08.044Z,8.80
2018-12-19T11:47:37.294Z,8.23
2018-12-19T11:50:08.575Z,10.70
2018-12-19T11:52:37.765Z,9.13
2018-12-19T11:55:07.427Z,10.20
2018-12-19T11:57:37.427Z,10.28
2018-12-19T12:00:09.338Z,9.73
2018-12-19T12:02:38.543Z,10.10
2018-12-19T12:05:07.920Z,9.18
2018-12-19T12:07:43.981Z,10.43
2018-12-19T12:10:13.287Z,8.93
2018-12-19T12:12:42.467Z,9.78
2018-12-19T12:15:11.761Z,9.35
2018-12-19T12:17:40.942Z,10.10
2018-12-19T12:20:10.214Z,11.38
2018-12-19T12:22:39.376Z,9.35
2018-12-19T12:25:08.678Z,9.03
2018-12-19T12:27:37.819Z,6.60
2018-12-19T12:30:07.974Z,9.93
2018-12-19T12:32:37.130Z,10.13
2018-12-19T12:35:08.278Z,10.30
2018-12-19T12:37:37.534Z,10.75
2018-12-19T12:40:08.587Z,10.28
2018-12-19T12:42:37.917Z,9.83
2018-12-19T12:45:07.624Z,10.50
2018-12-19T12:47:36.799Z,10.05
2018-12-19T12:50:06.811Z,11.78
2018-12-19T12:52:35.981Z,11.95
2018-12-19T12:55:06.027Z,10.05
2018-12-19T12:57:35.197Z,10.50
2018-12-19T13:00:06.711Z,11.78
2018-12-19T13:02:35.892Z,10.45
2018-12-19T13:05:05.410Z,9.45
2018-12-19T13:07:34.586Z,10.70
2018-12-19T13:10:04.598Z,10.38
2018-12-19T13:12:33.797Z,10.28
2018-12-19T13:15:03.247Z,11.53
2018-12-19T13:17:32.621Z,11.85
2018-12-19T13:20:01.820Z,11.10
2018-12-19T13:22:31.101Z,10.78
2018-12-19T13:25:00.323Z,9.38
2018-12-19T13:27:29.479Z,11.28
2018-12-19T13:29:58.666Z,12.13
2018-12-19T13:32:27.822Z,11.93
2018-12-19T13:34:57.034Z,11.28
2018-12-19T13:37:27.554Z,12.80
2018-12-19T13:39:56.926Z,11.40
2018-12-19T13:42:26.123Z,11.90
2018-12-19T13:44:55.314Z,12.23
2018-12-19T13:47:24.512Z,12.20
2018-12-19T13:49:53.687Z,12.65
2018-12-19T13:52:22.939Z,12.07
2018-12-19T13:54:52.134Z,12.70
2018-12-19T13:57:21.311Z,8.35
2018-12-19T13:59:50.511Z,12.75
2018-12-19T14:02:19.671Z,12.78
2018-12-19T14:04:49.091Z,11.93
2018-12-19T14:07:18.362Z,12.53
2018-12-19T14:09:47.780Z,12.43
2018-12-19T14:12:16.946Z,12.47
2018-12-19T14:14:46.181Z,12.40
2018-12-19T14:17:15.407Z,11.20
2018-12-19T14:19:44.692Z,12.35
2018-12-19T14:22:13.843Z,11.83
2018-12-19T14:24:43.030Z,12.13
2018-12-19T14:27:12.209Z,12.95
2018-12-19T14:29:41.475Z,12.50
2018-12-19T14:32:10.675Z,7.75
2018-12-19T14:34:39.936Z,11.68
2018-12-19T14:37:09.207Z,13.53
2018-12-19T14:39:38.379Z,11.48
2018-12-19T14:42:07.575Z,12.28
2018-12-19T14:44:36.764Z,12.47
2018-12-19T14:47:05.982Z,12.85
2018-12-19T14:49:35.198Z,12.88
2018-12-19T14:52:04.386Z,11.00
2018-12-19T14:54:33.578Z,12.37
2018-12-19T14:57:02.775Z,12.82
2018-12-19T14:59:31.944Z,12.58
2018-12-19T15:02:01.169Z,13.75
2018-12-19T15:04:30.341Z,13.53
2018-12-19T15:06:59.518Z,12.98
2018-12-19T15:09:28.713Z,13.05
2018-12-19T15:11:58.514Z,13.85
2018-12-19T15:14:27.791Z,13.28
2018-12-19T15:16:57.074Z,12.35
2018-12-19T15:19:26.579Z,12.13
2018-12-19T15:21:55.753Z,13.35
2018-12-19T15:24:24.920Z,12.58
2018-12-19T15:26:54.119Z,12.82
2018-12-19T15:29:23.287Z,11.73
2018-12-19T15:31:52.469Z,13.90
2018-12-19T15:34:21.655Z,12.68
2018-12-19T15:36:50.846Z,12.53
2018-12-19T15:39:20.819Z,12.68
2018-12-19T15:41:49.982Z,13.90
2018-12-19T15:44:19.185Z,14.25
2018-12-19T15:46:48.348Z,13.10
2018-12-19T15:49:17.537Z,12.82
2018-12-19T15:51:46.815Z,13.32
2018-12-19T15:54:16.063Z,12.93
2018-12-19T15:56:45.342Z,12.28
2018-12-19T15:59:14.506Z,12.85
2018-12-19T16:01:43.773Z,12.20
2018-12-19T16:04:13.034Z,13.35
2018-12-19T16:06:42.210Z,13.25
2018-12-19T16:09:11.371Z,13.13
2018-12-19T16:11:40.573Z,12.65
2018-12-19T16:14:09.769Z,13.22
2018-12-19T16:16:39.150Z,12.95
2018-12-19T16:19:08.410Z,13.65
2018-12-19T16:21:37.631Z,14.00
2018-12-19T16:24:06.886Z,11.60
2018-12-19T16:26:36.064Z,12.45
2018-12-19T16:29:05.402Z,11.33
2018-12-19T16:31:34.590Z,9.55
2018-12-19T16:34:03.895Z,7.95
2018-12-19T16:36:33.079Z,13.00
2018-12-19T16:39:02.266Z,12.63
2018-12-19T16:41:31.498Z,13.75
2018-12-19T16:44:00.650Z,12.28
2018-12-19T16:46:29.926Z,13.13
2018-12-19T16:48:59.082Z,14.20
2018-12-19T16:51:28.280Z,13.35
2018-12-19T16:53:57.459Z,14.40
2018-12-19T16:56:26.647Z,13.00
2018-12-19T16:58:55.824Z,13.53
2018-12-19T17:01:25.102Z,12.78
2018-12-19T17:03:54.278Z,13.03
2018-12-19T17:06:23.567Z,13.15
2018-12-19T17:08:52.762Z,14.23
2018-12-19T17:11:21.991Z,13.90
2018-12-19T17:13:51.250Z,14.00
2018-12-19T17:16:20.459Z,14.00
2018-12-19T17:18:49.635Z,13.08
2018-12-19T17:21:19.270Z,14.20
2018-12-19T17:23:48.434Z,14.35
2018-12-19T17:26:17.779Z,13.43
2018-12-19T17:28:46.951Z,14.75
2018-12-19T17:31:16.230Z,14.80
2018-12-19T17:33:45.431Z,13.93
2018-12-19T17:36:14.621Z,11.95
2018-12-19T17:38:43.812Z,13.78
2018-12-19T17:41:13.154Z,13.65
2018-12-19T17:43:42.363Z,9.80
2018-12-19T17:46:11.558Z,14.68
2018-12-19T17:48:40.747Z,14.10
2018-12-19T17:51:09.923Z,15.10
2018-12-19T17:53:39.110Z,14.60
2018-12-19T17:56:08.276Z,15.68
2018-12-19T17:58:37.460Z,13.43
2018-12-19T18:01:06.714Z,13.62
2018-12-19T18:03:35.897Z,14.38
2018-12-19T18:06:05.257Z,13.95
2018-12-19T18:08:34.455Z,12.18
2018-12-19T18:11:03.618Z,15.88
2018-12-19T18:13:32.926Z,14.28
2018-12-19T18:16:02.282Z,14.68
2018-12-19T18:18:31.482Z,15.23
2018-12-19T18:21:00.652Z,13.98
2018-12-19T18:23:29.846Z,14.00
2018-12-19T18:25:59.042Z,14.13
2018-12-19T18:28:28.268Z,16.02
2018-12-19T18:30:57.439Z,15.55
2018-12-19T18:33:26.637Z,15.50
2018-12-19T18:35:55.803Z,15.70
2018-12-19T18:38:24.993Z,16.75
2018-12-19T18:40:54.333Z,16.57
2018-12-19T18:43:23.610Z,16.10
2018-12-19T18:45:52.937Z,15.13
2018-12-19T18:48:22.190Z,15.80
2018-12-19T18:50:51.385Z,15.30
2018-12-19T18:53:20.579Z,16.17
2018-12-19T18:55:50.420Z,15.98
2018-12-19T18:58:19.711Z,13.88
2018-12-19T19:00:48.998Z,15.63
2018-12-19T19:03:18.361Z,16.37
2018-12-19T19:05:47.828Z,17.23
2018-12-19T19:08:17.159Z,15.08
2018-12-19T19:10:46.313Z,16.67
2018-12-19T19:13:19.697Z,16.93
2018-12-19T19:15:46.770Z,15.72
2018-12-19T19:18:17.490Z,16.20
2018-12-19T19:20:46.638Z,16.12
2018-12-19T19:23:15.834Z,15.93
2018-12-19T19:25:45.042Z,17.25
2018-12-19T19:28:14.239Z,16.52
2018-12-19T19:30:43.417Z,16.50
2018-12-19T19:33:12.699Z,16.62
2018-12-19T19:35:42.038Z,16.20
2018-12-19T19:38:11.264Z,17.00
2018-12-19T19:40:40.441Z,18.27
2018-12-19T19:43:09.742Z,15.63
2018-12-19T19:45:39.004Z,16.52
2018-12-19T19:48:08.186Z,16.20
2018-12-19T19:50:37.351Z,15.63
2018-12-19T19:53:06.614Z,17.35
2018-12-19T19:55:35.803Z,17.15
2018-12-19T19:58:05.058Z,15.63
2018-12-19T20:00:35.720Z,17.23
2018-12-19T20:03:05.800Z,17.12
2018-12-19T20:05:34.979Z,16.45
2018-12-19T20:08:04.221Z,16.87
2018-12-19T20:10:33.496Z,17.23
2018-12-19T20:13:02.691Z,16.82
2018-12-19T20:15:32.062Z,16.67
2018-12-19T20:18:01.351Z,15.72
2018-12-19T20:20:31.694Z,16.27
2018-12-19T20:23:00.892Z,16.62
2018-12-19T20:25:30.083Z,15.60
2018-12-19T20:27:59.422Z,16.25
2018-12-19T20:30:28.689Z,16.10
2018-12-19T20:32:57.946Z,15.83
2018-12-19T20:35:27.106Z,15.80
2018-12-19T20:37:56.311Z,17.23
2018-12-19T20:40:25.554Z,16.23
2018-12-19T20:42:54.753Z,16.00
2018-12-19T20:45:23.952Z,15.35
2018-12-19T20:47:53.155Z,16.70
2018-12-19T20:50:22.403Z,17.67
2018-12-19T20:52:51.767Z,15.70
2018-12-19T20:55:21.034Z,16.05
2018-12-19T20:57:50.241Z,16.77
2018-12-19T21:00:19.582Z,15.08
2018-12-19T21:02:48.782Z,15.50
2018-12-19T21:05:19.024Z,16.82
2018-12-19T21:07:48.386Z,15.38
2018-12-19T21:10:18.728Z,17.60
2018-12-19T21:12:47.964Z,16.57
2018-12-19T21:15:17.250Z,16.15
2018-12-19T21:17:51.831Z,17.55
2018-12-19T21:20:21.135Z,17.10
2018-12-19T21:22:50.845Z,16.05
2018-12-19T21:25:20.090Z,18.48
2018-12-19T21:27:49.386Z,18.67
2018-12-19T21:30:18.728Z,18.30
2018-12-19T21:32:47.974Z,17.52
2018-12-19T21:35:17.162Z,17.87
2018-12-19T21:37:46.354Z,18.30
2018-12-19T21:40:15.853Z,18.27
2018-12-19T21:42:45.168Z,17.32
2018-12-19T21:45:14.629Z,17.35
2018-12-19T21:47:43.910Z,17.52
2018-12-19T21:50:13.461Z,17.40
2018-12-19T21:52:42.960Z,18.52
2018-12-19T21:55:12.253Z,18.75
2018-12-19T21:57:41.434Z,18.82
2018-12-19T22:00:15.184Z,18.15
2018-12-19T22:02:44.422Z,17.42
2018-12-19T22:05:13.643Z,18.60
2018-12-19T22:07:43.070Z,18.07
2018-12-19T22:10:12.530Z,17.37
2018-12-19T22:12:41.920Z,18.48
2018-12-19T22:15:11.297Z,18.25
2018-12-19T22:17:45.786Z,17.67
2018-12-19T22:20:15.040Z,17.48
2018-12-19T22:22:44.212Z,20.12
2018-12-19T22:25:13.433Z,18.37
2018-12-19T22:27:42.813Z,18.07
2018-12-19T22:30:12.280Z,19.90
2018-12-19T22:32:41.504Z,20.05
2018-12-19T22:35:10.755Z,19.75
2018-12-19T22:37:40.219Z,18.90
2018-12-19T22:40:11.365Z,18.30
2018-12-19T22:42:40.599Z,19.40
2018-12-19T22:45:10.099Z,17.98
2018-12-19T22:47:39.476Z,19.52
2018-12-19T22:50:09.006Z,19.00
2018-12-19T22:52:38.354Z,18.90
2018-12-19T22:55:07.778Z,19.52
2018-12-19T22:57:37.076Z,18.80
2018-12-19T23:00:13.488Z,17.62
2018-12-19T23:02:48.026Z,19.95
2018-12-19T23:05:21.550Z,19.85
2018-12-19T23:07:50.825Z,20.05
2018-12-19T23:10:20.119Z,15.00
2018-12-19T23:12:49.327Z,19.77
2018-12-19T23:15:20.355Z,19.73
2018-12-19T23:17:49.510Z,18.85
2018-12-19T23:20:18.699Z,19.48
2018-12-19T23:22:47.904Z,18.67
2018-12-19T23:25:17.209Z,17.80
2018-12-19T23:27:46.548Z,18.57
2018-12-19T23:30:15.847Z,18.35
2018-12-19T23:32:45.171Z,17.52
2018-12-19T23:35:14.463Z,17.87
2018-12-19T23:37:43.698Z,18.52
2018-12-19T23:40:13.694Z,19.50
2018-12-19T23:42:43.133Z,19.30
2018-12-19T23:45:12.394Z,18.02
2018-12-19T23:47:41.868Z,17.65
2018-12-19T23:50:11.419Z,18.05
2018-12-19T23:52:40.717Z,18.20
2018-12-19T23:55:09.897Z,18.82
2018-12-19T23:57:39.054Z,18.62
